Time;durP1;ratioP1;P1;durP2;ratioP2;P2;SDS_P1;SDS_P2;PMS_P1;PMS_P2;Temp;Humidity;BMP_temperature;BMP_pressure;BME280_temperature;BME280_humidity;BME280_pressure;Samples;Min_cycle;Max_cycle;Signal;HPM_P1;HPM_P2
2021/12/11 06:00:46;;;;;;;2.80;2.60;;;5.30;97.20;;;;;;1728408;28;20208;-73
2021/12/11 06:01:40;;;;;;;2.90;2.70;;;5.30;97.20;;;;;;1728241;28;20437;-73
2021/12/11 06:02:32;;;;;;;2.40;2.30;;;5.30;97.20;;;;;;1728249;28;20224;-73
2021/12/11 06:03:23;;;;;;;2.35;2.25;;;5.30;97.20;;;;;;1727786;28;20259;-73
2021/12/11 06:04:17;;;;;;;2.90;2.70;;;5.30;97.20;;;;;;1728114;28;20205;-73
2021/12/11 06:05:09;;;;;;;2.80;2.60;;;5.30;97.20;;;;;;1728162;28;20263;-73
2021/12/11 06:06:01;;;;;;;2.40;2.20;;;5.30;97.20;;;;;;1728084;28;20200;-73
2021/12/11 06:06:54;;;;;;;3.45;2.00;;;5.30;97.20;;;;;;1727980;28;20667;-73
2021/12/11 06:07:45;;;;;;;2.40;2.30;;;5.30;97.20;;;;;;1728241;28;20212;-73
2021/12/11 06:08:37;;;;;;;2.00;1.90;;;5.30;97.20;;;;;;1728247;28;20283;-73
2021/12/11 06:09:29;;;;;;;2.30;2.20;;;5.30;97.20;;;;;;1728130;28;20486;-73
2021/12/11 06:10:22;;;;;;;2.25;2.15;;;5.30;97.20;;;;;;1728118;28;20266;-73
2021/12/11 06:11:15;;;;;;;2.00;1.90;;;5.30;97.20;;;;;;1728109;28;20595;-73
2021/12/11 06:12:11;;;;;;;2.50;2.33;;;5.30;97.20;;;;;;1728219;28;20619;-73
2021/12/11 06:13:03;;;;;;;2.40;2.28;;;5.30;97.20;;;;;;1727632;28;20212;-73
2021/12/11 06:13:54;;;;;;;2.65;2.55;;;5.30;97.20;;;;;;1727660;28;20216;-74
2021/12/11 06:14:48;;;;;;;2.40;2.20;;;5.30;97.20;;;;;;1728109;28;20232;-73
2021/12/11 06:15:40;;;;;;;2.50;2.30;;;5.30;97.20;;;;;;1728054;28;20726;-73
2021/12/11 06:16:33;;;;;;;2.40;2.30;;;5.30;97.20;;;;;;1728060;28;20236;-73
2021/12/11 06:17:30;;;;;;;2.92;2.17;;;5.30;97.20;;;;;;1728211;28;20411;-73
2021/12/11 06:18:21;;;;;;;2.20;2.10;;;5.30;97.20;;;;;;1728149;28;20196;-73
2021/12/11 06:19:13;;;;;;;2.43;2.20;;;5.30;97.20;;;;;;1728096;28;20200;-73
2021/12/11 06:20:06;;;;;;;2.30;2.20;;;5.30;97.20;;;;;;1728171;28;20458;-73
2021/12/11 06:20:58;;;;;;;2.80;2.60;;;5.20;97.20;;;;;;1728020;28;20307;-73
2021/12/11 06:21:51;;;;;;;2.30;2.10;;;5.20;97.20;;;;;;1728075;28;20216;-73
2021/12/11 06:22:43;;;;;;;2.55;2.40;;;5.20;97.20;;;;;;1728043;28;20246;-74
2021/12/11 06:23:34;;;;;;;4.18;2.20;;;5.20;97.20;;;;;;1727497;28;20259;-73
2021/12/11 06:24:28;;;;;;;2.13;2.03;;;5.20;97.20;;;;;;1728065;28;20208;-73
2021/12/11 06:25:21;;;;;;;2.60;2.40;;;5.20;97.20;;;;;;1727996;28;20688;-73
2021/12/11 06:26:13;;;;;;;2.10;2.00;;;5.20;97.20;;;;;;1728084;28;20559;-73
2021/12/11 06:27:04;;;;;;;2.03;1.92;;;5.20;97.20;;;;;;1728117;28;20731;-73
2021/12/11 06:27:57;;;;;;;2.10;2.00;;;5.20;97.20;;;;;;1727989;28;20201;-73
2021/12/11 06:28:48;;;;;;;2.78;2.58;;;5.20;97.20;;;;;;1728058;28;20211;-73
2021/12/11 06:29:40;;;;;;;2.57;2.37;;;5.20;97.20;;;;;;1728018;28;20200;-73
2021/12/11 06:30:31;;;;;;;2.70;2.50;;;5.20;97.20;;;;;;1728046;28;20444;-73
2021/12/11 06:31:23;;;;;;;2.83;2.63;;;5.20;97.20;;;;;;1728022;28;20196;-73
2021/12/11 06:32:15;;;;;;;2.67;2.47;;;5.20;97.20;;;;;;1727500;28;20216;-73
2021/12/11 06:33:08;;;;;;;3.00;2.80;;;5.30;97.20;;;;;;1727916;28;20299;-73
2021/12/11 06:33:59;;;;;;;2.70;2.50;;;5.30;97.20;;;;;;1727808;28;20204;-73
2021/12/11 06:34:51;;;;;;;2.70;2.50;;;5.30;97.20;;;;;;1727963;28;20279;-73
2021/12/11 06:35:47;;;;;;;2.70;2.50;;;5.30;97.20;;;;;;1727925;28;20582;-73
2021/12/11 06:36:41;;;;;;;2.85;2.65;;;5.30;97.20;;;;;;1727998;28;20250;-73
2021/12/11 06:37:31;;;;;;;2.35;2.20;;;5.30;97.20;;;;;;1727925;28;20200;-73
2021/12/11 06:38:27;;;;;;;2.60;2.40;;;5.30;97.20;;;;;;1727971;28;20216;-72
2021/12/11 06:39:20;;;;;;;2.50;2.20;;;5.30;97.20;;;;;;1727982;28;20688;-72
2021/12/11 06:40:13;;;;;;;2.40;2.30;;;5.30;97.20;;;;;;1727696;28;20542;-73
2021/12/11 06:41:06;;;;;;;2.30;2.20;;;5.30;97.20;;;;;;1728038;28;20236;-73
2021/12/11 06:42:01;;;;;;;2.60;2.40;;;5.30;97.20;;;;;;1727940;28;20266;-73
2021/12/11 06:42:52;;;;;;;2.72;2.53;;;5.30;97.20;;;;;;1727815;28;20211;-73
2021/12/11 06:43:44;;;;;;;2.47;2.38;;;5.30;97.20;;;;;;1727719;28;20196;-73
2021/12/11 06:44:36;;;;;;;2.60;2.40;;;5.30;97.20;;;;;;1727912;28;20228;-73
2021/12/11 06:45:31;;;;;;;2.55;2.35;;;5.20;97.20;;;;;;1727825;28;20239;-73
2021/12/11 06:46:22;;;;;;;2.65;2.10;;;5.20;97.20;;;;;;1727877;28;20209;-73
2021/12/11 06:47:15;;;;;;;2.80;2.03;;;5.20;97.20;;;;;;1727915;28;20291;-73
2021/12/11 06:48:06;;;;;;;2.13;2.03;;;5.20;97.20;;;;;;1727911;28;20831;-73
2021/12/11 06:48:59;;;;;;;2.40;2.30;;;5.20;97.20;;;;;;1728029;28;20530;-73
2021/12/11 06:49:50;;;;;;;2.40;2.30;;;5.20;97.20;;;;;;1727607;28;20205;-74
2021/12/11 06:50:42;;;;;;;2.40;2.20;;;5.20;97.20;;;;;;1727569;28;20254;-73
2021/12/11 06:51:34;;;;;;;3.33;2.13;;;5.20;97.20;;;;;;1727881;28;20239;-73
2021/12/11 06:52:27;;;;;;;2.60;2.40;;;5.20;97.20;;;;;;1727840;28;20209;-73
2021/12/11 06:53:24;;;;;;;2.50;2.40;;;5.20;97.20;;;;;;1727747;28;20216;-73
2021/12/11 06:54:16;;;;;;;2.53;2.42;;;5.30;97.20;;;;;;1727864;28;20215;-73
2021/12/11 06:55:08;;;;;;;2.63;2.47;;;5.30;97.20;;;;;;1727825;28;20208;-73
2021/12/11 06:56:01;;;;;;;2.40;2.30;;;5.30;97.20;;;;;;1727859;28;20207;-73
2021/12/11 06:56:52;;;;;;;2.13;2.03;;;5.30;97.20;;;;;;1727853;28;20736;-73
2021/12/11 06:57:45;;;;;;;2.65;2.45;;;5.30;97.20;;;;;;1727722;28;20570;-73
2021/12/11 06:58:35;;;;;;;3.03;2.78;;;5.30;97.20;;;;;;1727811;28;20204;-73
2021/12/11 06:59:27;;;;;;;2.70;2.50;;;5.40;97.20;;;;;;1727837;28;20208;-73
2021/12/11 07:00:20;;;;;;;2.83;2.63;;;5.40;97.20;;;;;;1727504;28;20498;-73
2021/12/11 07:01:12;;;;;;;3.60;3.30;;;5.40;97.20;;;;;;1727835;28;20200;-73
2021/12/11 07:02:04;;;;;;;5.03;3.28;;;5.40;97.20;;;;;;1727900;28;20200;-73
2021/12/11 07:02:57;;;;;;;3.22;3.03;;;5.50;97.20;;;;;;1727786;28;20356;-73
2021/12/11 07:03:48;;;;;;;2.80;2.60;;;5.50;97.20;;;;;;1727608;28;20204;-73
2021/12/11 07:04:40;;;;;;;3.13;2.80;;;5.50;97.20;;;;;;1727724;28;20196;-73
2021/12/11 07:05:33;;;;;;;3.50;3.20;;;5.50;97.20;;;;;;1727721;28;20958;-73
2021/12/11 07:06:25;;;;;;;2.70;2.50;;;5.50;97.20;;;;;;1727647;28;20200;-73
2021/12/11 07:07:21;;;;;;;3.08;2.88;;;5.40;97.20;;;;;;1727862;28;20215;-73
2021/12/11 07:08:13;;;;;;;2.83;2.63;;;5.40;97.20;;;;;;1727813;28;20593;-73
2021/12/11 07:09:05;;;;;;;3.20;2.90;;;5.40;97.20;;;;;;1727794;28;20327;-73
2021/12/11 07:09:57;;;;;;;2.95;2.75;;;5.40;97.20;;;;;;1727449;28;20196;-73
2021/12/11 07:10:49;;;;;;;3.10;2.90;;;5.40;97.20;;;;;;1725277;28;20204;-73
2021/12/11 07:11:43;;;;;;;3.30;3.10;;;5.40;97.20;;;;;;1727370;28;20216;-73
2021/12/11 07:12:34;;;;;;;3.20;3.00;;;5.40;97.20;;;;;;1722623;28;20205;-73
2021/12/11 07:13:27;;;;;;;3.35;3.15;;;5.40;97.20;;;;;;1720556;28;20236;-73
2021/12/11 07:14:20;;;;;;;4.00;3.60;;;5.40;97.20;;;;;;1724422;28;20200;-73
2021/12/11 07:15:12;;;;;;;3.45;3.13;;;5.40;97.20;;;;;;1727663;28;20242;-73
2021/12/11 07:16:03;;;;;;;3.40;3.20;;;5.40;97.20;;;;;;1727283;28;20196;-73
2021/12/11 07:16:56;;;;;;;3.50;3.30;;;5.40;97.20;;;;;;1720921;28;20208;-72
2021/12/11 07:17:47;;;;;;;3.35;3.15;;;5.30;97.20;;;;;;1720682;28;20263;-73
2021/12/11 07:18:40;;;;;;;3.70;3.40;;;5.30;97.20;;;;;;1720402;28;20229;-73
2021/12/11 07:19:31;;;;;;;3.65;3.45;;;5.30;97.20;;;;;;1720915;28;20209;-73
2021/12/11 07:20:23;;;;;;;3.43;3.23;;;5.30;97.20;;;;;;1720958;28;20288;-73
2021/12/11 07:21:14;;;;;;;3.80;3.60;;;5.30;97.20;;;;;;1720913;28;20443;-72
2021/12/11 07:22:07;;;;;;;3.90;3.60;;;5.30;97.20;;;;;;1720973;28;20201;-73
2021/12/11 07:22:59;;;;;;;4.38;4.07;;;5.20;97.20;;;;;;1724539;28;20443;-74
2021/12/11 07:23:51;;;;;;;4.15;3.75;;;5.30;97.20;;;;;;1726642;28;20228;-73
2021/12/11 07:24:47;;;;;;;4.43;4.13;;;5.20;97.20;;;;;;1722041;28;20205;-73
2021/12/11 07:25:50;;;;;;;4.22;3.92;;;5.20;97.20;;;;;;1723960;28;20694;-73
2021/12/11 07:26:41;;;;;;;4.32;4.00;;;5.20;97.20;;;;;;1727642;28;20208;-73
2021/12/11 07:27:34;;;;;;;4.25;3.95;;;5.30;97.20;;;;;;1727306;28;20200;-73
2021/12/11 07:28:26;;;;;;;4.25;3.95;;;5.30;97.20;;;;;;1727463;28;20662;-73
2021/12/11 07:29:20;;;;;;;4.20;3.90;;;5.30;97.20;;;;;;1727800;28;20644;-73
2021/12/11 07:30:11;;;;;;;4.40;4.10;;;5.30;97.20;;;;;;1721700;28;20201;-73
2021/12/11 07:31:02;;;;;;;4.32;4.03;;;5.30;97.20;;;;;;1720974;28;20240;-73
2021/12/11 07:31:53;;;;;;;4.68;4.38;;;5.30;97.20;;;;;;1720816;28;20205;-73
2021/12/11 07:32:45;;;;;;;4.27;3.97;;;5.40;97.20;;;;;;1720865;28;20201;-73
2021/12/11 07:33:37;;;;;;;4.70;4.40;;;5.40;97.20;;;;;;1721172;28;20959;-73
2021/12/11 07:34:30;;;;;;;4.63;4.32;;;5.40;97.20;;;;;;1725941;28;20655;-73
2021/12/11 07:35:21;;;;;;;4.68;4.38;;;5.40;97.20;;;;;;1727549;28;20560;-73
2021/12/11 07:36:13;;;;;;;4.68;4.30;;;5.40;97.20;;;;;;1726160;28;20267;-73
2021/12/11 07:37:05;;;;;;;4.40;4.10;;;5.40;97.20;;;;;;1727249;28;20197;-73
2021/12/11 07:37:56;;;;;;;4.75;4.45;;;5.40;97.20;;;;;;1727576;28;20283;-73
2021/12/11 07:38:48;;;;;;;4.60;4.30;;;5.40;97.20;;;;;;1727526;28;20228;-73
2021/12/11 07:39:40;;;;;;;5.18;4.78;;;5.40;97.20;;;;;;1727621;28;20200;-73
2021/12/11 07:40:35;;;;;;;4.78;4.47;;;5.40;97.20;;;;;;1727569;28;20204;-73
2021/12/11 07:41:27;;;;;;;4.25;3.95;;;5.40;97.20;;;;;;1727563;28;20688;-73
2021/12/11 07:42:18;;;;;;;4.82;4.50;;;5.40;97.20;;;;;;1727609;28;20258;-73
2021/12/11 07:43:11;;;;;;;5.10;4.60;;;5.40;97.20;;;;;;1727518;28;20204;-73
2021/12/11 07:44:02;;;;;;;5.50;5.10;;;5.40;97.20;;;;;;1727241;28;20939;-73
2021/12/11 07:44:54;;;;;;;6.00;5.50;;;5.40;97.20;;;;;;1727492;28;20204;-73
2021/12/11 07:45:46;;;;;;;5.70;5.30;;;5.40;97.20;;;;;;1724913;28;20236;-73
2021/12/11 07:46:38;;;;;;;6.45;5.53;;;5.40;97.20;;;;;;1720860;28;20228;-73
2021/12/11 07:47:29;;;;;;;6.07;5.60;;;5.40;97.20;;;;;;1720729;28;20683;-73
2021/12/11 07:48:21;;;;;;;6.00;5.60;;;5.30;97.20;;;;;;1720795;28;20726;-73
2021/12/11 07:49:14;;;;;;;5.28;4.88;;;5.40;97.20;;;;;;1720747;28;20440;-73
2021/12/11 07:50:08;;;;;;;6.35;5.70;;;5.40;97.20;;;;;;1720734;28;20236;-73
2021/12/11 07:50:59;;;;;;;6.40;5.90;;;5.40;97.20;;;;;;1720946;28;20213;-73
2021/12/11 07:51:51;;;;;;;6.60;6.00;;;5.40;97.20;;;;;;1720791;28;20194;-73
2021/12/11 07:52:42;;;;;;;5.40;5.00;;;5.40;97.20;;;;;;1720801;28;20459;-73
2021/12/11 07:53:34;;;;;;;6.57;6.07;;;5.40;97.20;;;;;;1720412;28;20730;-73
2021/12/11 07:54:25;;;;;;;5.28;4.93;;;5.40;97.20;;;;;;1720730;28;20243;-73
2021/12/11 07:55:17;;;;;;;5.53;5.10;;;5.40;97.20;;;;;;1720661;28;20241;-73
2021/12/11 07:56:09;;;;;;;5.47;4.97;;;5.40;97.20;;;;;;1725071;28;20467;-73
2021/12/11 07:57:00;;;;;;;5.38;4.88;;;5.40;97.20;;;;;;1727549;28;20201;-73
2021/12/11 07:57:51;;;;;;;5.32;4.93;;;5.40;97.20;;;;;;1727475;28;20285;-73
2021/12/11 07:58:43;;;;;;;4.93;4.57;;;5.40;97.20;;;;;;1727455;28;20224;-73
2021/12/11 07:59:34;;;;;;;5.30;4.90;;;5.40;97.20;;;;;;1727494;28;20243;-73
2021/12/11 08:00:27;;;;;;;5.82;5.32;;;5.30;97.20;;;;;;1727506;28;20204;-73
2021/12/11 08:01:19;;;;;;;5.07;4.68;;;5.30;97.20;;;;;;1727565;28;20209;-73
2021/12/11 08:02:11;;;;;;;5.75;5.25;;;5.30;97.20;;;;;;1727428;28;20222;-74
2021/12/11 08:03:03;;;;;;;5.20;4.80;;;5.30;97.20;;;;;;1727410;28;20238;-73
2021/12/11 08:03:57;;;;;;;5.90;5.43;;;5.30;97.20;;;;;;1727239;28;20210;-73
2021/12/11 08:04:48;;;;;;;5.22;4.82;;;5.30;97.20;;;;;;1727390;28;20208;-73
2021/12/11 08:05:44;;;;;;;6.00;5.50;;;5.30;97.20;;;;;;1726926;28;20228;-73
2021/12/11 08:06:36;;;;;;;6.63;6.07;;;5.30;97.20;;;;;;1720740;28;20703;-73
2021/12/11 08:07:28;;;;;;;6.80;6.20;;;5.30;97.20;;;;;;1720628;28;20204;-73
2021/12/11 08:08:21;;;;;;;6.95;6.35;;;5.30;97.20;;;;;;1720666;28;20209;-73
2021/12/11 08:09:15;;;;;;;7.03;6.53;;;5.30;97.20;;;;;;1720664;28;20228;-73
2021/12/11 08:10:08;;;;;;;6.25;5.75;;;5.30;97.20;;;;;;1720713;28;20241;-73
2021/12/11 08:11:04;;;;;;;6.28;5.78;;;5.30;97.20;;;;;;1720649;28;20280;-73
2021/12/11 08:11:56;;;;;;;5.85;5.45;;;5.30;97.20;;;;;;1720706;28;20688;-73
2021/12/11 08:12:48;;;;;;;6.80;6.30;;;5.30;97.20;;;;;;1720642;28;20205;-73
2021/12/11 08:13:41;;;;;;;6.80;6.25;;;5.30;97.20;;;;;;1720310;28;20236;-73
2021/12/11 08:14:32;;;;;;;6.63;6.22;;;5.30;97.20;;;;;;1720552;28;20205;-73
2021/12/11 08:15:24;;;;;;;6.65;6.15;;;5.30;97.20;;;;;;1720553;28;20204;-73
2021/12/11 08:16:21;;;;;;;6.47;5.90;;;5.40;97.20;;;;;;1725342;28;20235;-73
2021/12/11 08:17:13;;;;;;;7.10;6.60;;;5.30;97.20;;;;;;1727493;28;20200;-73
2021/12/11 08:18:06;;;;;;;6.28;5.78;;;5.30;97.20;;;;;;1727490;28;20228;-73
2021/12/11 08:18:58;;;;;;;7.05;6.55;;;5.30;97.20;;;;;;1727342;28;20626;-73
2021/12/11 08:19:50;;;;;;;7.03;6.43;;;5.40;97.20;;;;;;1727410;28;20573;-73
2021/12/11 08:20:44;;;;;;;7.00;6.50;;;5.40;97.20;;;;;;1727375;28;20209;-73
2021/12/11 08:21:36;;;;;;;7.53;6.82;;;5.40;97.20;;;;;;1727341;28;20205;-73
2021/12/11 08:22:27;;;;;;;7.78;6.30;;;5.40;97.20;;;;;;1727418;28;20211;-73
2021/12/11 08:23:19;;;;;;;7.37;6.77;;;5.40;97.20;;;;;;1727329;28;20224;-73
2021/12/11 08:24:10;;;;;;;7.53;6.93;;;5.40;97.20;;;;;;1726977;28;20813;-73
2021/12/11 08:25:02;;;;;;;7.53;6.97;;;5.40;97.20;;;;;;1727394;28;20585;-73
2021/12/11 08:25:54;;;;;;;7.75;7.15;;;5.40;97.20;;;;;;1725295;28;20454;-73
2021/12/11 08:26:46;;;;;;;8.30;7.60;;;5.40;97.20;;;;;;1720647;28;20292;-73
2021/12/11 08:27:37;;;;;;;8.30;7.60;;;5.40;97.20;;;;;;1720593;28;20664;-73
2021/12/11 08:28:32;;;;;;;7.80;7.18;;;5.50;97.20;;;;;;1720628;28;20300;-73
2021/12/11 08:29:23;;;;;;;8.43;7.72;;;5.50;97.20;;;;;;1720973;28;20200;-73
2021/12/11 08:30:15;;;;;;;8.55;7.95;;;5.40;97.20;;;;;;1721960;28;20251;-74
2021/12/11 08:31:07;;;;;;;8.10;7.40;;;5.40;97.20;;;;;;1722009;28;20235;-73
2021/12/11 08:31:59;;;;;;;8.40;7.70;;;5.40;97.20;;;;;;1721974;28;20208;-73
2021/12/11 08:32:51;;;;;;;9.57;8.80;;;5.40;97.20;;;;;;1721958;28;20259;-73
2021/12/11 08:33:42;;;;;;;9.50;8.70;;;5.40;97.20;;;;;;1721683;28;20229;-73
2021/12/11 08:34:34;;;;;;;10.03;9.00;;;5.50;97.20;;;;;;1721958;28;20219;-73
2021/12/11 08:35:25;;;;;;;10.55;9.40;;;5.50;97.20;;;;;;1721945;28;20451;-73
2021/12/11 08:36:19;;;;;;;9.80;9.00;;;5.50;97.20;;;;;;1726288;28;20199;-73
2021/12/11 08:37:12;;;;;;;10.18;9.32;;;5.50;97.20;;;;;;1728745;28;20474;-73
2021/12/11 08:38:06;;;;;;;9.55;8.60;;;5.50;97.20;;;;;;1728766;28;20644;-73
2021/12/11 08:38:59;;;;;;;9.95;9.13;;;5.50;97.20;;;;;;1728677;28;20603;-73
2021/12/11 08:39:52;;;;;;;9.70;8.90;;;5.60;97.20;;;;;;1728692;28;20236;-73
2021/12/11 08:40:46;;;;;;;9.88;8.98;;;5.60;97.20;;;;;;1728725;28;20204;-73
2021/12/11 08:41:39;;;;;;;10.35;9.45;;;5.60;97.20;;;;;;1728672;28;20723;-73
2021/12/11 08:42:30;;;;;;;10.50;9.40;;;5.60;97.20;;;;;;1728712;28;20200;-73
2021/12/11 08:43:23;;;;;;;10.52;9.52;;;5.60;97.20;;;;;;1728705;28;20224;-73
2021/12/11 08:44:16;;;;;;;10.88;9.88;;;5.60;97.20;;;;;;1728610;28;20208;-73
2021/12/11 08:45:11;;;;;;;9.88;8.85;;;5.60;97.20;;;;;;1728654;28;20227;-73
2021/12/11 08:46:09;;;;;;;10.18;9.27;;;5.60;97.20;;;;;;1725879;28;20648;-73
2021/12/11 08:47:05;;;;;;;9.07;8.32;;;5.60;97.20;;;;;;1721980;28;20261;-73
2021/12/11 08:48:00;;;;;;;10.25;9.35;;;5.50;97.20;;;;;;1721968;28;20625;-73
2021/12/11 08:48:53;;;;;;;9.30;8.50;;;5.50;97.20;;;;;;1721867;28;20197;-73
2021/12/11 08:49:44;;;;;;;9.52;8.73;;;5.50;97.20;;;;;;1721860;28;20209;-73
2021/12/11 08:50:36;;;;;;;9.43;8.60;;;5.50;97.20;;;;;;1721886;28;20255;-73
2021/12/11 08:51:33;;;;;;;10.15;9.25;;;5.40;97.20;;;;;;1721882;28;20205;-73
2021/12/11 08:52:28;;;;;;;10.10;9.15;;;5.40;97.20;;;;;;1721895;28;20205;-73
2021/12/11 08:53:19;;;;;;;9.43;8.68;;;5.40;97.20;;;;;;1721760;28;20221;-73
2021/12/11 08:54:12;;;;;;;9.70;8.90;;;5.40;97.20;;;;;;1721521;28;20700;-74
2021/12/11 08:55:07;;;;;;;9.68;8.82;;;5.40;97.20;;;;;;1721860;28;20704;-74
2021/12/11 08:56:00;;;;;;;10.27;9.35;;;5.40;97.20;;;;;;1723470;28;20197;-73
2021/12/11 08:56:52;;;;;;;9.80;8.90;;;5.40;97.20;;;;;;1728597;28;20346;-73
2021/12/11 08:57:44;;;;;;;10.30;9.40;;;5.40;97.20;;;;;;1728571;28;20196;-73
2021/12/11 08:58:36;;;;;;;9.05;8.30;;;5.50;97.20;;;;;;1728522;28;20710;-73
2021/12/11 08:59:30;;;;;;;10.05;9.15;;;5.50;97.20;;;;;;1728532;28;20205;-73
2021/12/11 09:00:29;;;;;;;8.88;8.10;;;5.50;97.20;;;;;;1728690;28;20201;-73
2021/12/11 09:01:26;;;;;;;9.43;8.73;;;5.50;97.20;;;;;;1728704;28;20299;-73
2021/12/11 09:02:21;;;;;;;9.10;8.38;;;5.50;97.20;;;;;;1728666;28;20624;-73
2021/12/11 09:03:17;;;;;;;10.43;9.43;;;5.50;97.20;;;;;;1728512;28;20287;-73
2021/12/11 09:04:12;;;;;;;9.52;8.70;;;5.50;97.20;;;;;;1728285;28;20588;-73
2021/12/11 09:05:10;;;;;;;9.70;8.90;;;5.50;97.20;;;;;;1728466;28;20625;-73
2021/12/11 09:06:07;;;;;;;11.23;10.13;;;5.50;97.20;;;;;;1726255;28;20593;-73
2021/12/11 09:07:06;;;;;;;10.60;9.60;;;5.50;97.20;;;;;;1721783;28;20201;-73
2021/12/11 09:08:02;;;;;;;10.45;9.60;;;5.60;97.20;;;;;;1721801;28;20212;-73
2021/12/11 09:08:58;;;;;;;9.93;9.13;;;5.60;97.20;;;;;;1721770;28;20213;-73
2021/12/11 09:09:52;;;;;;;9.35;8.60;;;5.60;97.20;;;;;;1721778;28;20292;-73
2021/12/11 09:10:49;;;;;;;10.90;9.90;;;5.60;97.20;;;;;;1721314;28;20548;-73
2021/12/11 09:11:43;;;;;;;10.98;9.32;;;5.60;97.20;;;;;;1721140;28;20205;-73
2021/12/11 09:12:40;;;;;;;10.48;9.48;;;5.60;97.20;;;;;;1724703;28;20216;-72
2021/12/11 09:13:34;;;;;;;9.38;8.57;;;5.50;97.20;;;;;;1721255;28;20285;-73
2021/12/11 09:14:29;;;;;;;11.50;10.40;;;5.50;97.20;;;;;;1725720;28;20702;-73
2021/12/11 09:15:24;;;;;;;11.27;10.00;;;5.50;97.20;;;;;;1720602;28;20287;-73
2021/12/11 09:16:20;;;;;;;11.15;10.15;;;5.40;97.20;;;;;;1728411;28;20201;-72
2021/12/11 09:17:15;;;;;;;11.05;10.05;;;5.40;97.20;;;;;;1729803;28;20197;-73
2021/12/11 09:18:11;;;;;;;11.73;10.63;;;5.40;97.20;;;;;;1727304;28;20193;-73
2021/12/11 09:19:07;;;;;;;11.70;10.60;;;5.40;97.20;;;;;;1728411;28;20224;-72
2021/12/11 09:20:08;;;;;;;10.50;9.60;;;5.40;97.20;;;;;;1728072;28;20258;-73
2021/12/11 09:21:05;;;;;;;10.02;9.10;;;5.40;97.20;;;;;;1720915;28;20216;-73
2021/12/11 09:22:01;;;;;;;12.07;10.98;;;5.40;97.20;;;;;;1721615;28;20209;-72
2021/12/11 09:22:59;;;;;;;10.05;9.15;;;5.40;97.20;;;;;;1721430;28;20237;-72
2021/12/11 09:24:02;;;;;;;11.23;10.18;;;5.40;97.20;;;;;;1721119;28;20216;-72
2021/12/11 09:24:57;;;;;;;10.38;9.05;;;5.40;97.20;;;;;;1720929;28;20216;-72
2021/12/11 09:25:52;;;;;;;9.77;8.88;;;5.40;97.20;;;;;;1721313;28;20337;-72
2021/12/11 09:26:47;;;;;;;10.35;9.43;;;5.40;97.20;;;;;;1723883;28;20216;-72
2021/12/11 09:27:46;;;;;;;9.98;9.18;;;5.40;97.20;;;;;;1728521;28;20560;-72
2021/12/11 09:28:40;;;;;;;11.13;10.13;;;5.40;97.20;;;;;;1728284;28;20683;-73
2021/12/11 09:29:35;;;;;;;9.20;8.40;;;5.40;97.20;;;;;;1728028;28;20227;-73
2021/12/11 09:30:34;;;;;;;10.52;9.43;;;5.30;97.20;;;;;;1728139;28;20258;-72
2021/12/11 09:31:32;;;;;;;11.07;10.07;;;5.30;97.20;;;;;;1728399;28;20211;-72
2021/12/11 09:32:28;;;;;;;11.68;10.68;;;5.30;97.20;;;;;;1728126;28;20683;-72
2021/12/11 09:33:24;;;;;;;10.70;9.70;;;5.30;97.20;;;;;;1728209;28;20240;-72
2021/12/11 09:34:18;;;;;;;11.45;10.45;;;5.30;97.20;;;;;;1728193;28;20213;-73
2021/12/11 09:35:21;;;;;;;11.45;10.35;;;5.30;97.20;;;;;;1728114;28;20203;-72
2021/12/11 09:36:17;;;;;;;10.25;9.45;;;5.30;97.20;;;;;;1725002;28;20225;-72
2021/12/11 09:37:10;;;;;;;11.23;10.15;;;5.40;97.20;;;;;;1721632;28;20320;-72
2021/12/11 09:38:07;;;;;;;10.88;9.90;;;5.40;97.20;;;;;;1721573;28;20209;-72
2021/12/11 09:39:07;;;;;;;11.48;10.48;;;5.40;97.20;;;;;;1721533;28;20615;-72
2021/12/11 09:40:03;;;;;;;10.02;9.23;;;5.50;97.20;;;;;;1721561;28;20551;-72
2021/12/11 09:40:55;;;;;;;9.90;9.10;;;5.50;97.20;;;;;;1721192;28;20232;-72
2021/12/11 09:41:46;;;;;;;9.93;9.02;;;5.50;97.20;;;;;;1721052;28;20209;-72
2021/12/11 09:42:37;;;;;;;10.80;9.70;;;5.50;97.20;;;;;;1721479;28;20197;-72
2021/12/11 09:43:40;;;;;;;10.50;9.60;;;5.50;97.20;;;;;;1721043;28;20225;-72
2021/12/11 09:44:35;;;;;;;11.43;10.38;;;5.60;97.20;;;;;;1721459;28;20205;-73
2021/12/11 09:45:28;;;;;;;10.70;9.80;;;5.60;97.20;;;;;;1721615;28;20641;-72
2021/12/11 09:46:24;;;;;;;10.82;9.88;;;5.60;97.20;;;;;;1724884;28;20197;-73
2021/12/11 09:47:20;;;;;;;12.80;11.60;;;5.60;97.20;;;;;;1728236;28;20208;-73
2021/12/11 09:48:17;;;;;;;12.40;11.27;;;5.70;97.20;;;;;;1728192;28;20199;-73
2021/12/11 09:49:12;;;;;;;13.18;11.93;;;5.70;97.20;;;;;;1726049;28;20201;-73
2021/12/11 09:50:11;;;;;;;12.60;11.40;;;5.70;97.20;;;;;;1721335;28;20665;-73
2021/12/11 09:51:08;;;;;;;10.55;9.55;;;5.70;97.20;;;;;;1721256;28;20237;-73
2021/12/11 09:52:15;;;;;;;11.45;10.25;;;5.80;97.20;;;;;;1721377;28;20229;-72
2021/12/11 09:53:06;;;;;;;10.23;9.30;;;5.80;97.20;;;;;;1721012;28;20292;-72
2021/12/11 09:54:04;;;;;;;9.50;8.60;;;5.90;97.20;;;;;;1723621;28;20197;-72
2021/12/11 09:54:59;;;;;;;10.35;9.45;;;5.90;97.20;;;;;;1727127;28;20240;-72
2021/12/11 09:55:52;;;;;;;9.68;8.88;;;5.90;97.20;;;;;;1724829;28;20197;-72
2021/12/11 09:56:46;;;;;;;9.68;8.70;;;6.00;97.20;;;;;;1724643;28;20201;-72
2021/12/11 09:57:42;;;;;;;9.38;8.48;;;6.00;97.20;;;;;;1721285;28;20209;-73
2021/12/11 09:58:36;;;;;;;9.05;8.15;;;6.00;97.20;;;;;;1721296;28;20213;-75
2021/12/11 09:59:31;;;;;;;9.13;8.35;;;6.00;97.20;;;;;;1721243;28;20229;-72
2021/12/11 10:00:27;;;;;;;9.60;8.80;;;6.00;97.20;;;;;;1721263;28;20202;-73
2021/12/11 10:01:21;;;;;;;9.43;8.55;;;6.00;97.20;;;;;;1721258;28;20401;-73
2021/12/11 10:02:18;;;;;;;9.55;8.75;;;6.00;97.20;;;;;;1721237;28;20209;-73
2021/12/11 10:03:11;;;;;;;8.48;7.78;;;6.10;97.20;;;;;;1721211;28;20212;-72
2021/12/11 10:04:06;;;;;;;8.35;7.55;;;6.10;97.20;;;;;;1721056;28;20208;-72
2021/12/11 10:05:03;;;;;;;8.60;7.85;;;6.00;97.20;;;;;;1721207;28;20598;-73
2021/12/11 10:05:57;;;;;;;9.77;8.88;;;6.00;97.20;;;;;;1721157;28;20726;-73
2021/12/11 10:07:13;;;;;;;10.00;9.10;;;6.00;97.20;;;;;;1721099;28;20244;-73
2021/12/11 10:08:26;;;;;;;10.45;9.55;;;6.00;97.20;;;;;;1721007;28;20664;-73
2021/12/11 10:09:24;;;;;;;9.50;8.80;;;6.00;97.20;;;;;;1721287;28;20237;-73
2021/12/11 10:10:24;;;;;;;9.30;8.50;;;6.00;97.20;;;;;;1721165;28;20205;-72
2021/12/11 10:11:19;;;;;;;9.10;8.23;;;6.00;97.20;;;;;;1721102;28;20205;-72
2021/12/11 10:12:15;;;;;;;10.63;9.75;;;6.10;97.20;;;;;;1721148;28;20292;-73
2021/12/11 10:13:05;;;;;;;10.30;9.30;;;6.10;97.20;;;;;;1721021;28;20255;-73
2021/12/11 10:14:02;;;;;;;9.90;9.00;;;6.10;97.20;;;;;;1720895;28;20256;-73
2021/12/11 10:14:58;;;;;;;9.93;9.00;;;6.10;97.20;;;;;;1721065;28;20209;-72
2021/12/11 10:15:50;;;;;;;9.70;8.90;;;6.10;97.20;;;;;;1721012;28;20198;-73
2021/12/11 10:16:44;;;;;;;10.05;9.25;;;6.10;97.20;;;;;;1726755;28;20208;-73
2021/12/11 10:17:41;;;;;;;9.93;9.13;;;6.10;97.20;;;;;;1727803;28;20307;-73
2021/12/11 10:18:35;;;;;;;9.52;8.52;;;6.10;97.20;;;;;;1727914;28;20212;-72
2021/12/11 10:19:29;;;;;;;10.20;9.30;;;6.10;97.20;;;;;;1727859;28;20228;-73
2021/12/11 10:20:25;;;;;;;9.57;8.77;;;6.10;97.20;;;;;;1727851;28;20215;-73
2021/12/11 10:21:20;;;;;;;11.00;9.90;;;6.10;97.20;;;;;;1727833;28;20598;-73
2021/12/11 10:22:16;;;;;;;11.27;10.27;;;6.10;97.20;;;;;;1727943;28;20204;-72
2021/12/11 10:23:12;;;;;;;10.07;9.25;;;6.10;97.20;;;;;;1727824;28;20235;-73
2021/12/11 10:24:13;;;;;;;9.30;8.40;;;6.10;97.20;;;;;;1727632;28;20664;-73
2021/12/11 10:25:10;;;;;;;10.13;9.20;;;6.10;97.20;;;;;;1727860;28;20271;-73
2021/12/11 10:26:07;;;;;;;10.30;9.30;;;6.10;97.20;;;;;;1727420;28;20200;-73
2021/12/11 10:27:01;;;;;;;11.73;10.55;;;6.00;97.20;;;;;;1721085;28;20264;-72
2021/12/11 10:27:53;;;;;;;10.93;9.82;;;6.00;97.20;;;;;;1721056;28;20216;-73
2021/12/11 10:28:47;;;;;;;11.43;10.32;;;6.00;97.20;;;;;;1721204;28;20838;-72
2021/12/11 10:29:42;;;;;;;10.75;9.65;;;6.00;97.20;;;;;;1721057;28;20197;-73
2021/12/11 10:30:36;;;;;;;10.38;9.38;;;6.00;97.20;;;;;;1721005;28;20695;-72
2021/12/11 10:31:30;;;;;;;11.18;10.18;;;5.90;97.20;;;;;;1720982;28;20205;-73
2021/12/11 10:32:25;;;;;;;10.30;9.30;;;5.90;97.20;;;;;;1721112;28;20205;-72
2021/12/11 10:33:19;;;;;;;9.90;9.02;;;5.90;97.20;;;;;;1721032;28;20229;-73
2021/12/11 10:34:15;;;;;;;9.18;8.35;;;5.90;97.20;;;;;;1720701;28;20201;-73
2021/12/11 10:35:11;;;;;;;9.05;8.35;;;5.90;97.20;;;;;;1720994;28;20205;-72
2021/12/11 10:36:06;;;;;;;9.90;9.00;;;5.90;97.20;;;;;;1721005;28;20205;-72
2021/12/11 10:37:01;;;;;;;8.70;7.90;;;5.80;97.20;;;;;;1721054;28;20205;-73
2021/12/11 10:37:53;;;;;;;9.40;8.50;;;5.80;97.20;;;;;;1720898;28;20208;-73
2021/12/11 10:38:47;;;;;;;9.57;8.77;;;5.80;97.20;;;;;;1721142;28;20686;-72
2021/12/11 10:39:42;;;;;;;9.45;8.63;;;5.80;97.20;;;;;;1720877;28;20316;-72
2021/12/11 10:40:38;;;;;;;9.45;8.65;;;5.80;97.20;;;;;;1720893;28;20697;-73
2021/12/11 10:41:29;;;;;;;9.18;8.48;;;5.80;97.20;;;;;;1725807;28;20997;-72
2021/12/11 10:42:22;;;;;;;9.13;8.32;;;5.80;97.20;;;;;;1727804;28;20202;-73